CheckWX is a tool to help pilots better visualize weather data.  It is not intended as a substitute for an official pre-flight weather briefing.

08:01:24 UTC

NLWW TAF
Hihifo Airport
Wallis Island, Samoa
TAF NLWW 190500Z 1906/2006 VRB02KT 9999 FEW025 PROB40 TEMPO 1912/1916 4000 SHRA FEW020CB

Mar-19@
06:00 UTC

Mar-19 @ 06:00 UTC

Mar-20@
06:00 UTC

Mar-20 @ 06:00 UTC

TAF NLWW 190500Z 1906/2006 VRB02KT 9999 FEW025
Wind
  • Variable at 2 KTS
Cloud Levels
  • Few at 2,500' AGL

Mar-19@
12:00 UTC

Mar-19 @ 12:00 UTC

Mar-19@
16:00 UTC

Mar-19 @ 16:00 UTC

PROB40 TEMPO 1912/1916 4000 SHRA FEW020CB

Temporary - 40% Likelihood

Temporary - 40% Likelihood during this time.

Conditions
Rain
Cloud Levels
  • Few at 2,000' AGL